This is the latest recevied weather packets stored in our database for station/object DL2GPS-3. If no packets are shown the sender has not sent any weather packets the latest 10 day(s).
| Time | Temp. | Humidity | Pressure | Rain* | Wind** | Luminosity | Snow |
|---|---|---|---|---|---|---|---|
| 1777534312 | 9.44° C | 41% | 1023.9 hPa | - | - | - | - |
| 1777533708 | 8.89° C | 41% | 1023.8 hPa | - | - | - | - |
| 1777533103 | 8.33° C | 41% | 1023.8 hPa | - | - | - | - |
| 1777532498 | 8.33° C | 42% | 1023.9 hPa | - | - | - | - |
| 1777531892 | 8.33° C | 42% | 1023.7 hPa | - | - | - | - |
| 1777531287 | 7.78° C | 43% | 1023.8 hPa | - | - | - | - |
| 1777530682 | 8.33° C | 40% | 1023.9 hPa | - | - | - | - |
| 1777530078 | 11.11° C | 34% | 1024 hPa | - | - | - | - |
| 1777529472 | 13.89° C | 30% | 1023.8 hPa | - | - | - | - |
| 1777528867 | 14.44° C | 30% | 1023.7 hPa | - | - | - | - |
| 1777528262 | 14.44° C | 30% | 1023.6 hPa | - | - | - | - |
| 1777527658 | 15.56° C | 28% | 1023.6 hPa | - | - | - | - |
| 1777527052 | 16.11° C | 28% | 1023.5 hPa | - | - | - | - |
| 1777526447 | 16.11° C | 28% | 1023.4 hPa | - | - | - | - |
| 1777525843 | 15° C | 29% | 1023.4 hPa | - | - | - | - |
| 1777525239 | 15° C | 30% | 1023.3 hPa | - | - | - | - |
| 1777524634 | 13.33° C | 33% | 1023.5 hPa | - | - | - | - |
| 1777524029 | 11.67° C | 35% | 1023.4 hPa | - | - | - | - |
| 1777523424 | 8.89° C | 41% | 1023.5 hPa | - | - | - | - |
| 1777522819 | 5° C | 51% | 1023.4 hPa | - | - | - | - |
| 1777522214 | 2.22° C | 62% | 1023.6 hPa | - | - | - | - |
| 1777521609 | 2.22° C | 62% | 1023.5 hPa | - | - | - | - |
| 1777521004 | 2.22° C | 60% | 1023.4 hPa | - | - | - | - |
| 1777520400 | 2.22° C | 60% | 1023.5 hPa | - | - | - | - |
| 1777519795 | 2.22° C | 59% | 1023.5 hPa | - | - | - | - |
* Rain since midnight (hover to see other rain measurements)
** Current wind speed in m/s (hover to see current wind gust speed)